sensor_id;sensor_type;location;lat;lon;timestamp;pressure;altitude;pressure_sealevel;temperature;humidity
45285;BME280;31026;43.780;25.948;2023-03-22T00:01:11;100594.09;;;16.30;72.65
45285;BME280;31026;43.780;25.948;2023-03-22T00:03:40;100606.09;;;16.36;73.28
45285;BME280;31026;43.780;25.948;2023-03-22T00:06:09;100591.31;;;16.32;72.75
45285;BME280;31026;43.780;25.948;2023-03-22T00:08:38;100588.75;;;16.30;72.46
45285;BME280;31026;43.780;25.948;2023-03-22T00:11:06;100596.63;;;16.32;72.70
45285;BME280;31026;43.780;25.948;2023-03-22T00:13:35;100587.66;;;16.33;72.76
45285;BME280;31026;43.780;25.948;2023-03-22T00:16:04;100598.94;;;16.36;72.85
45285;BME280;31026;43.780;25.948;2023-03-22T00:18:35;100593.25;;;16.29;72.54
45285;BME280;31026;43.780;25.948;2023-03-22T00:21:04;100598.31;;;16.33;72.60
45285;BME280;31026;43.780;25.948;2023-03-22T00:23:32;100603.91;;;16.29;72.62
45285;BME280;31026;43.780;25.948;2023-03-22T00:26:00;100607.53;;;16.28;72.51
45285;BME280;31026;43.780;25.948;2023-03-22T00:28:29;100605.00;;;16.27;72.31
45285;BME280;31026;43.780;25.948;2023-03-22T00:30:58;100598.81;;;16.26;72.67
45285;BME280;31026;43.780;25.948;2023-03-22T00:33:27;100604.16;;;16.26;72.64
45285;BME280;31026;43.780;25.948;2023-03-22T00:35:59;100600.53;;;16.27;72.91
45285;BME280;31026;43.780;25.948;2023-03-22T00:38:28;100598.69;;;16.28;73.36
45285;BME280;31026;43.780;25.948;2023-03-22T00:41:04;100611.94;;;16.29;73.15
45285;BME280;31026;43.780;25.948;2023-03-22T00:43:33;100612.75;;;16.30;73.14
45285;BME280;31026;43.780;25.948;2023-03-22T00:46:01;100606.44;;;16.31;72.48
45285;BME280;31026;43.780;25.948;2023-03-22T00:48:29;100605.00;;;16.27;73.10
45285;BME280;31026;43.780;25.948;2023-03-22T00:51:00;100604.25;;;16.25;72.38
45285;BME280;31026;43.780;25.948;2023-03-22T00:53:29;100596.16;;;16.26;72.35
45285;BME280;31026;43.780;25.948;2023-03-22T00:55:58;100617.38;;;16.28;72.61
45285;BME280;31026;43.780;25.948;2023-03-22T00:58:26;100595.41;;;16.24;72.62
45285;BME280;31026;43.780;25.948;2023-03-22T01:00:54;100599.03;;;16.23;72.76
45285;BME280;31026;43.780;25.948;2023-03-22T01:03:23;100594.47;;;16.25;72.13
45285;BME280;31026;43.780;25.948;2023-03-22T01:05:51;100606.09;;;16.24;72.49
45285;BME280;31026;43.780;25.948;2023-03-22T01:08:23;100585.69;;;16.23;72.57
45285;BME280;31026;43.780;25.948;2023-03-22T01:10:57;100576.00;;;16.22;72.81
45285;BME280;31026;43.780;25.948;2023-03-22T01:13:25;100594.31;;;16.27;72.71
45285;BME280;31026;43.780;25.948;2023-03-22T01:15:54;100595.19;;;16.27;73.27
45285;BME280;31026;43.780;25.948;2023-03-22T01:18:22;100594.69;;;16.22;72.40
45285;BME280;31026;43.780;25.948;2023-03-22T01:20:50;100591.78;;;16.25;72.43
45285;BME280;31026;43.780;25.948;2023-03-22T01:23:19;100592.75;;;16.24;72.28
45285;BME280;31026;43.780;25.948;2023-03-22T01:25:50;100587.53;;;16.23;72.51
45285;BME280;31026;43.780;25.948;2023-03-22T01:28:18;100591.19;;;16.22;72.36
45285;BME280;31026;43.780;25.948;2023-03-22T01:30:46;100587.53;;;16.23;72.71
45285;BME280;31026;43.780;25.948;2023-03-22T01:33:15;100584.97;;;16.21;72.32
45285;BME280;31026;43.780;25.948;2023-03-22T01:35:44;100583.28;;;16.20;72.31
45285;BME280;31026;43.780;25.948;2023-03-22T01:38:12;100588.63;;;16.20;72.51
45285;BME280;31026;43.780;25.948;2023-03-22T01:40:40;100590.31;;;16.21;72.81
45285;BME280;31026;43.780;25.948;2023-03-22T01:43:14;100592.97;;;16.21;72.93
45285;BME280;31026;43.780;25.948;2023-03-22T01:45:43;100591.19;;;16.22;72.88
45285;BME280;31026;43.780;25.948;2023-03-22T01:48:13;100591.19;;;16.22;72.57
45285;BME280;31026;43.780;25.948;2023-03-22T01:50:44;100605.47;;;16.21;72.89
45285;BME280;31026;43.780;25.948;2023-03-22T01:53:15;100583.03;;;16.23;73.01
45285;BME280;31026;43.780;25.948;2023-03-22T01:55:47;100586.69;;;16.22;72.36
45285;BME280;31026;43.780;25.948;2023-03-22T01:58:19;100590.81;;;16.26;72.33
45285;BME280;31026;43.780;25.948;2023-03-22T02:00:47;100587.41;;;16.24;72.74
45285;BME280;31026;43.780;25.948;2023-03-22T02:03:18;100592.97;;;16.21;72.05
45285;BME280;31026;43.780;25.948;2023-03-22T02:05:47;100586.19;;;16.17;72.21
45285;BME280;31026;43.780;25.948;2023-03-22T02:08:16;100595.91;;;16.18;72.25
45285;BME280;31026;43.780;25.948;2023-03-22T02:10:44;100585.34;;;16.17;72.38
45285;BME280;31026;43.780;25.948;2023-03-22T02:13:25;100588.84;;;16.17;71.96
45285;BME280;31026;43.780;25.948;2023-03-22T02:15:58;100590.78;;;16.15;72.08
45285;BME280;31026;43.780;25.948;2023-03-22T02:18:35;100588.00;;;16.17;72.23
45285;BME280;31026;43.780;25.948;2023-03-22T02:21:19;100603.19;;;16.16;72.18
45285;BME280;31026;43.780;25.948;2023-03-22T02:29:35;100615.53;;;16.17;72.52
45285;BME280;31026;43.780;25.948;2023-03-22T02:32:18;100606.69;;;16.17;72.58
45285;BME280;31026;43.780;25.948;2023-03-22T02:37:41;100615.53;;;16.17;72.26
45285;BME280;31026;43.780;25.948;2023-03-22T02:40:15;100620.75;;;16.19;71.97
45285;BME280;31026;43.780;25.948;2023-03-22T02:42:51;100618.34;;;16.16;72.08
45285;BME280;31026;43.780;25.948;2023-03-22T02:45:23;100606.81;;;16.15;73.08
45285;BME280;31026;43.780;25.948;2023-03-22T02:47:55;100608.53;;;16.16;73.01
45285;BME280;31026;43.780;25.948;2023-03-22T02:50:25;100613.69;;;16.63;71.55
45285;BME280;31026;43.780;25.948;2023-03-22T02:52:56;100599.31;;;17.30;69.75
45285;BME280;31026;43.780;25.948;2023-03-22T02:55:32;100602.53;;;18.39;66.47
45285;BME280;31026;43.780;25.948;2023-03-22T02:58:02;100603.13;;;19.02;64.52
45285;BME280;31026;43.780;25.948;2023-03-22T03:00:32;100608.09;;;19.36;63.49
45285;BME280;31026;43.780;25.948;2023-03-22T03:03:04;100600.31;;;19.04;64.66
45285;BME280;31026;43.780;25.948;2023-03-22T03:05:36;100619.22;;;19.02;64.97
45285;BME280;31026;43.780;25.948;2023-03-22T03:08:06;100623.59;;;19.13;64.78
45285;BME280;31026;43.780;25.948;2023-03-22T03:10:39;100610.47;;;19.10;64.67
45285;BME280;31026;43.780;25.948;2023-03-22T03:13:09;100599.31;;;19.15;64.33
45285;BME280;31026;43.780;25.948;2023-03-22T03:15:38;100608.06;;;19.17;64.60
45285;BME280;31026;43.780;25.948;2023-03-22T03:18:12;100604.38;;;19.18;64.72
45285;BME280;31026;43.780;25.948;2023-03-22T03:20:46;100614.41;;;19.25;64.27
45285;BME280;31026;43.780;25.948;2023-03-22T03:23:21;100594.53;;;19.28;64.40
45285;BME280;31026;43.780;25.948;2023-03-22T03:25:58;100607.50;;;19.33;64.44
45285;BME280;31026;43.780;25.948;2023-03-22T03:28:28;100611.59;;;19.37;64.13
45285;BME280;31026;43.780;25.948;2023-03-22T03:31:04;100612.31;;;19.29;64.82
45285;BME280;31026;43.780;25.948;2023-03-22T03:33:35;100606.94;;;19.39;64.48
45285;BME280;31026;43.780;25.948;2023-03-22T03:36:06;100604.13;;;19.40;64.15
45285;BME280;31026;43.780;25.948;2023-03-22T03:38:36;100601.44;;;19.40;64.31
45285;BME280;31026;43.780;25.948;2023-03-22T03:41:09;100613.84;;;19.51;63.88
45285;BME280;31026;43.780;25.948;2023-03-22T03:43:38;100604.25;;;19.58;63.73
45285;BME280;31026;43.780;25.948;2023-03-22T03:46:07;100621.03;;;19.60;63.85
45285;BME280;31026;43.780;25.948;2023-03-22T03:48:36;100615.94;;;19.67;63.37
45285;BME280;31026;43.780;25.948;2023-03-22T03:51:05;100627.84;;;19.74;63.50
45285;BME280;31026;43.780;25.948;2023-03-22T03:53:34;100617.66;;;19.78;63.43
45285;BME280;31026;43.780;25.948;2023-03-22T03:56:02;100634.88;;;19.75;63.63
45285;BME280;31026;43.780;25.948;2023-03-22T03:58:33;100628.41;;;19.78;63.41
45285;BME280;31026;43.780;25.948;2023-03-22T04:01:01;100646.03;;;19.32;64.81
45285;BME280;31026;43.780;25.948;2023-03-22T04:03:30;100636.75;;;18.76;66.62
45285;BME280;31026;43.780;25.948;2023-03-22T04:05:59;100651.09;;;18.24;67.93
45285;BME280;31026;43.780;25.948;2023-03-22T04:08:28;100647.66;;;17.92;69.20
45285;BME280;31026;43.780;25.948;2023-03-22T04:10:56;100658.31;;;17.70;69.48
45285;BME280;31026;43.780;25.948;2023-03-22T04:13:24;100647.72;;;18.01;68.79
45285;BME280;31026;43.780;25.948;2023-03-22T04:15:56;100668.75;;;18.37;67.57
45285;BME280;31026;43.780;25.948;2023-03-22T04:18:26;100642.78;;;18.68;66.89
45285;BME280;31026;43.780;25.948;2023-03-22T04:20:55;100653.00;;;18.43;67.32
45285;BME280;31026;43.780;25.948;2023-03-22T04:23:23;100646.88;;;18.01;68.26
45285;BME280;31026;43.780;25.948;2023-03-22T04:25:51;100665.13;;;17.96;68.50
45285;BME280;31026;43.780;25.948;2023-03-22T04:28:24;100649.13;;;18.26;68.01
45285;BME280;31026;43.780;25.948;2023-03-22T04:30:53;100656.16;;;18.58;66.74
45285;BME280;31026;43.780;25.948;2023-03-22T04:33:24;100656.41;;;18.55;67.14
45285;BME280;31026;43.780;25.948;2023-03-22T04:35:52;100661.59;;;18.16;68.02
45285;BME280;31026;43.780;25.948;2023-03-22T04:38:21;100664.28;;;17.95;68.57
45285;BME280;31026;43.780;25.948;2023-03-22T04:40:49;100662.69;;;18.14;68.04
45285;BME280;31026;43.780;25.948;2023-03-22T04:43:18;100667.63;;;18.39;67.21
45285;BME280;31026;43.780;25.948;2023-03-22T04:45:46;100668.56;;;18.59;66.63
45285;BME280;31026;43.780;25.948;2023-03-22T04:48:14;100671.69;;;18.34;67.46
45285;BME280;31026;43.780;25.948;2023-03-22T04:50:48;100668.94;;;17.93;68.45
45285;BME280;31026;43.780;25.948;2023-03-22T04:53:17;100679.88;;;18.11;68.19
45285;BME280;31026;43.780;25.948;2023-03-22T04:55:52;100684.53;;;18.40;67.13
45285;BME280;31026;43.780;25.948;2023-03-22T04:58:21;100678.75;;;18.75;65.84
45285;BME280;31026;43.780;25.948;2023-03-22T05:00:49;100682.03;;;18.48;66.96
45285;BME280;31026;43.780;25.948;2023-03-22T05:03:19;100687.72;;;18.03;68.42
45285;BME280;31026;43.780;25.948;2023-03-22T05:05:54;100685.75;;;18.05;68.25
45285;BME280;31026;43.780;25.948;2023-03-22T05:08:23;100689.88;;;18.40;66.84
45285;BME280;31026;43.780;25.948;2023-03-22T05:10:52;100685.81;;;18.76;66.32
45285;BME280;31026;43.780;25.948;2023-03-22T05:13:21;100703.06;;;18.53;66.86
45285;BME280;31026;43.780;25.948;2023-03-22T05:15:50;100693.25;;;18.11;68.09
45285;BME280;31026;43.780;25.948;2023-03-22T05:18:19;100693.06;;;18.03;68.52
45285;BME280;31026;43.780;25.948;2023-03-22T05:20:48;100683.16;;;18.45;67.75
45285;BME280;31026;43.780;25.948;2023-03-22T05:23:22;100690.69;;;18.82;66.53
45285;BME280;31026;43.780;25.948;2023-03-22T05:25:51;100700.09;;;18.56;67.53
45285;BME280;31026;43.780;25.948;2023-03-22T05:28:22;100709.50;;;18.19;68.41
45285;BME280;31026;43.780;25.948;2023-03-22T05:30:52;100702.13;;;18.12;69.46
45285;BME280;31026;43.780;25.948;2023-03-22T05:33:21;100704.75;;;18.54;68.11
45285;BME280;31026;43.780;25.948;2023-03-22T05:35:50;100698.03;;;18.90;67.11
45285;BME280;31026;43.780;25.948;2023-03-22T05:38:18;100714.09;;;18.90;66.98
45285;BME280;31026;43.780;25.948;2023-03-22T05:40:49;100720.06;;;18.42;68.37
45285;BME280;31026;43.780;25.948;2023-03-22T05:43:17;100720.44;;;18.06;69.06
45285;BME280;31026;43.780;25.948;2023-03-22T05:45:46;100728.78;;;18.13;68.57
45285;BME280;31026;43.780;25.948;2023-03-22T05:48:15;100738.97;;;18.50;67.95
45285;BME280;31026;43.780;25.948;2023-03-22T05:50:43;100745.84;;;18.74;67.01
45285;BME280;31026;43.780;25.948;2023-03-22T05:53:12;100718.19;;;18.63;67.02
45285;BME280;31026;43.780;25.948;2023-03-22T05:55:40;100740.13;;;18.26;68.56
45285;BME280;31026;43.780;25.948;2023-03-22T05:58:11;100736.66;;;17.94;68.87
45285;BME280;31026;43.780;25.948;2023-03-22T06:00:43;100733.47;;;18.21;68.70
45285;BME280;31026;43.780;25.948;2023-03-22T06:03:14;100733.97;;;18.57;67.17
45285;BME280;31026;43.780;25.948;2023-03-22T06:05:43;100744.72;;;18.66;67.50
45285;BME280;31026;43.780;25.948;2023-03-22T06:08:14;100734.25;;;18.33;68.06
45285;BME280;31026;43.780;25.948;2023-03-22T06:10:43;100736.72;;;18.03;68.79
45285;BME280;31026;43.780;25.948;2023-03-22T06:13:14;100742.59;;;18.18;68.01
45285;BME280;31026;43.780;25.948;2023-03-22T06:15:42;100751.13;;;18.54;67.30
45285;BME280;31026;43.780;25.948;2023-03-22T06:18:10;100750.63;;;18.70;67.03
45285;BME280;31026;43.780;25.948;2023-03-22T06:20:39;100752.47;;;18.39;67.59
45285;BME280;31026;43.780;25.948;2023-03-22T06:23:07;100759.97;;;18.03;68.58
45285;BME280;31026;43.780;25.948;2023-03-22T06:25:35;100744.09;;;18.11;68.03
45285;BME280;31026;43.780;25.948;2023-03-22T06:28:04;100750.41;;;18.52;67.39
45285;BME280;31026;43.780;25.948;2023-03-22T06:30:35;100750.06;;;18.66;66.59
45285;BME280;31026;43.780;25.948;2023-03-22T06:33:03;100754.41;;;18.37;67.64
45285;BME280;31026;43.780;25.948;2023-03-22T06:35:31;100755.56;;;18.02;68.58
45285;BME280;31026;43.780;25.948;2023-03-22T06:37:59;100770.28;;;18.07;68.27
45285;BME280;31026;43.780;25.948;2023-03-22T06:40:28;100761.34;;;18.39;67.51
45285;BME280;31026;43.780;25.948;2023-03-22T06:42:56;100739.63;;;18.63;66.52
45285;BME280;31026;43.780;25.948;2023-03-22T06:45:24;100756.03;;;18.49;66.65
45285;BME280;31026;43.780;25.948;2023-03-22T06:48:00;100775.88;;;18.04;68.18
45285;BME280;31026;43.780;25.948;2023-03-22T06:50:28;100787.97;;;17.99;67.96
45285;BME280;31026;43.780;25.948;2023-03-22T06:52:56;100783.41;;;18.32;67.30
45285;BME280;31026;43.780;25.948;2023-03-22T06:55:25;100787.81;;;18.63;66.05
45285;BME280;31026;43.780;25.948;2023-03-22T06:57:57;100791.09;;;18.46;66.53
45285;BME280;31026;43.780;25.948;2023-03-22T07:00:25;100782.09;;;18.05;67.61
45285;BME280;31026;43.780;25.948;2023-03-22T07:02:53;100787.16;;;18.08;67.67
45285;BME280;31026;43.780;25.948;2023-03-22T07:05:24;100784.19;;;18.43;66.87
45285;BME280;31026;43.780;25.948;2023-03-22T07:07:53;100784.22;;;18.74;65.64
45285;BME280;31026;43.780;25.948;2023-03-22T07:10:21;100784.03;;;18.66;66.10
45285;BME280;31026;43.780;25.948;2023-03-22T07:12:49;100795.63;;;18.24;67.26
45285;BME280;31026;43.780;25.948;2023-03-22T07:15:18;100791.34;;;18.01;68.34
45285;BME280;31026;43.780;25.948;2023-03-22T07:17:48;100798.63;;;18.31;67.46
45285;BME280;31026;43.780;25.948;2023-03-22T07:20:17;100783.06;;;18.67;66.08
45285;BME280;31026;43.780;25.948;2023-03-22T07:22:48;100786.41;;;18.59;65.94
45285;BME280;31026;43.780;25.948;2023-03-22T07:25:16;100802.19;;;18.20;67.75
45285;BME280;31026;43.780;25.948;2023-03-22T07:27:44;100801.34;;;17.99;67.92
45285;BME280;31026;43.780;25.948;2023-03-22T07:30:13;100820.63;;;18.35;67.05
45285;BME280;31026;43.780;25.948;2023-03-22T07:32:41;100798.81;;;18.60;66.63
45285;BME280;31026;43.780;25.948;2023-03-22T07:35:09;100804.31;;;18.59;66.23
45285;BME280;31026;43.780;25.948;2023-03-22T07:37:38;100813.88;;;18.19;67.35
45285;BME280;31026;43.780;25.948;2023-03-22T07:40:09;100799.50;;;17.99;68.24
45285;BME280;31026;43.780;25.948;2023-03-22T07:42:38;100820.75;;;18.33;67.33
45285;BME280;31026;43.780;25.948;2023-03-22T07:45:06;100809.25;;;18.63;66.25
45285;BME280;31026;43.780;25.948;2023-03-22T07:47:35;100799.19;;;18.56;66.32
45285;BME280;31026;43.780;25.948;2023-03-22T07:50:03;100813.16;;;18.17;67.42
45285;BME280;31026;43.780;25.948;2023-03-22T07:52:32;100828.53;;;18.04;67.85
45285;BME280;31026;43.780;25.948;2023-03-22T07:55:01;100802.63;;;18.37;67.25
45285;BME280;31026;43.780;25.948;2023-03-22T07:57:31;100805.84;;;18.61;65.99
45285;BME280;31026;43.780;25.948;2023-03-22T08:00:00;100829.25;;;18.59;66.36
45285;BME280;31026;43.780;25.948;2023-03-22T08:02:28;100815.44;;;18.22;67.20
45285;BME280;31026;43.780;25.948;2023-03-22T08:04:57;100829.16;;;18.07;67.83
45285;BME280;31026;43.780;25.948;2023-03-22T08:07:25;100817.31;;;18.42;67.08
45285;BME280;31026;43.780;25.948;2023-03-22T08:09:54;100811.06;;;18.84;65.55
45285;BME280;31026;43.780;25.948;2023-03-22T08:12:22;100818.19;;;18.74;66.00
45285;BME280;31026;43.780;25.948;2023-03-22T08:14:54;100831.00;;;18.28;67.32
45285;BME280;31026;43.780;25.948;2023-03-22T08:17:23;100821.97;;;18.08;67.50
45285;BME280;31026;43.780;25.948;2023-03-22T08:19:52;100830.50;;;18.55;66.12
45285;BME280;31026;43.780;25.948;2023-03-22T08:22:21;100821.00;;;18.93;65.23
45285;BME280;31026;43.780;25.948;2023-03-22T08:24:50;100823.34;;;18.65;66.22
45285;BME280;31026;43.780;25.948;2023-03-22T08:27:18;100828.38;;;18.17;67.62
45285;BME280;31026;43.780;25.948;2023-03-22T08:29:47;100814.81;;;18.08;67.52
45285;BME280;31026;43.780;25.948;2023-03-22T08:32:18;100818.75;;;18.46;66.47
45285;BME280;31026;43.780;25.948;2023-03-22T08:34:46;100829.31;;;18.69;66.06
45285;BME280;31026;43.780;25.948;2023-03-22T08:37:15;100811.56;;;18.47;66.49
45285;BME280;31026;43.780;25.948;2023-03-22T08:39:44;100829.47;;;18.14;67.07
45285;BME280;31026;43.780;25.948;2023-03-22T08:42:13;100834.59;;;18.17;67.25
45285;BME280;31026;43.780;25.948;2023-03-22T08:44:41;100818.75;;;18.46;66.75
45285;BME280;31026;43.780;25.948;2023-03-22T08:47:10;100828.53;;;18.57;66.10
45285;BME280;31026;43.780;25.948;2023-03-22T08:49:41;100831.78;;;18.82;64.83
45285;BME280;31026;43.780;25.948;2023-03-22T08:52:09;100821.66;;;18.85;64.03
45285;BME280;31026;43.780;25.948;2023-03-22T08:54:37;100845.84;;;18.95;64.28
45285;BME280;31026;43.780;25.948;2023-03-22T08:57:06;100842.72;;;18.90;64.28
45285;BME280;31026;43.780;25.948;2023-03-22T08:59:35;100825.13;;;18.97;64.24
45285;BME280;31026;43.780;25.948;2023-03-22T09:02:03;100823.41;;;18.75;65.05
45285;BME280;31026;43.780;25.948;2023-03-22T09:04:31;100832.50;;;18.21;65.90
45285;BME280;31026;43.780;25.948;2023-03-22T09:07:02;100828.59;;;17.81;66.28
45285;BME280;31026;43.780;25.948;2023-03-22T09:09:31;100841.31;;;17.57;66.90
45285;BME280;31026;43.780;25.948;2023-03-22T09:11:59;100856.38;;;17.46;66.84
45285;BME280;31026;43.780;25.948;2023-03-22T09:14:27;100840.47;;;17.34;67.41
45285;BME280;31026;43.780;25.948;2023-03-22T09:16:56;100843.38;;;17.30;67.29
45285;BME280;31026;43.780;25.948;2023-03-22T09:19:24;100852.41;;;17.41;67.22
45285;BME280;31026;43.780;25.948;2023-03-22T09:21:52;100850.28;;;17.56;67.58
45285;BME280;31026;43.780;25.948;2023-03-22T09:24:23;100850.78;;;17.61;67.55
45285;BME280;31026;43.780;25.948;2023-03-22T09:26:52;100840.81;;;17.63;67.99
45285;BME280;31026;43.780;25.948;2023-03-22T09:29:22;100848.13;;;17.61;67.65
45285;BME280;31026;43.780;25.948;2023-03-22T09:31:50;100841.31;;;17.57;68.16
45285;BME280;31026;43.780;25.948;2023-03-22T09:34:18;100839.84;;;17.53;68.08
45285;BME280;31026;43.780;25.948;2023-03-22T09:36:47;100834.91;;;18.24;66.37
45285;BME280;31026;43.780;25.948;2023-03-22T09:39:17;100825.53;;;18.93;64.80
45285;BME280;31026;43.780;25.948;2023-03-22T09:41:51;100839.59;;;18.85;64.69
45285;BME280;31026;43.780;25.948;2023-03-22T09:44:25;100834.75;;;18.37;65.93
45285;BME280;31026;43.780;25.948;2023-03-22T09:46:54;100834.47;;;18.61;65.22
45285;BME280;31026;43.780;25.948;2023-03-22T09:49:25;100828.75;;;18.86;65.13
45285;BME280;31026;43.780;25.948;2023-03-22T09:51:55;100828.38;;;19.01;64.39
45285;BME280;31026;43.780;25.948;2023-03-22T09:54:27;100843.34;;;19.34;63.44
45285;BME280;31026;43.780;25.948;2023-03-22T09:57:01;100841.53;;;19.44;63.40
45285;BME280;31026;43.780;25.948;2023-03-22T09:59:34;100836.72;;;19.38;63.46
45285;BME280;31026;43.780;25.948;2023-03-22T10:02:16;100833.91;;;19.40;63.34
45285;BME280;31026;43.780;25.948;2023-03-22T10:04:50;100854.34;;;19.41;63.28
45285;BME280;31026;43.780;25.948;2023-03-22T10:07:23;100845.19;;;19.43;63.58
45285;BME280;31026;43.780;25.948;2023-03-22T10:09:58;100829.94;;;19.34;63.50
45285;BME280;31026;43.780;25.948;2023-03-22T10:12:32;100836.72;;;19.38;63.90
45285;BME280;31026;43.780;25.948;2023-03-22T10:15:03;100846.84;;;19.35;63.85
45285;BME280;31026;43.780;25.948;2023-03-22T10:17:33;100829.78;;;19.36;63.78
45285;BME280;31026;43.780;25.948;2023-03-22T10:20:04;100838.69;;;19.36;63.99
45285;BME280;31026;43.780;25.948;2023-03-22T10:22:34;100836.44;;;19.41;63.82
45285;BME280;31026;43.780;25.948;2023-03-22T10:25:04;100829.25;;;19.42;63.60
45285;BME280;31026;43.780;25.948;2023-03-22T10:27:35;100844.47;;;19.41;64.15
45285;BME280;31026;43.780;25.948;2023-03-22T10:30:07;100841.41;;;19.46;63.56
45285;BME280;31026;43.780;25.948;2023-03-22T10:32:38;100840.28;;;19.48;63.54
45285;BME280;31026;43.780;25.948;2023-03-22T10:35:11;100843.41;;;19.54;63.66
45285;BME280;31026;43.780;25.948;2023-03-22T10:37:40;100816.84;;;19.51;63.94
45285;BME280;31026;43.780;25.948;2023-03-22T10:40:14;100833.47;;;19.44;63.85
45285;BME280;31026;43.780;25.948;2023-03-22T10:42:49;100822.03;;;19.42;64.04
45285;BME280;31026;43.780;25.948;2023-03-22T10:45:19;100827.13;;;19.45;63.52
45285;BME280;31026;43.780;25.948;2023-03-22T10:47:49;100830.28;;;19.60;63.34
45285;BME280;31026;43.780;25.948;2023-03-22T10:50:23;100843.97;;;19.67;63.02
45285;BME280;31026;43.780;25.948;2023-03-22T10:52:54;100822.38;;;19.68;63.62
45285;BME280;31026;43.780;25.948;2023-03-22T10:55:25;100831.00;;;19.62;63.60
45285;BME280;31026;43.780;25.948;2023-03-22T10:57:58;100832.97;;;19.70;63.84
45285;BME280;31026;43.780;25.948;2023-03-22T11:00:27;100825.53;;;19.74;63.46
45285;BME280;31026;43.780;25.948;2023-03-22T11:02:57;100823.22;;;19.69;63.98
45285;BME280;31026;43.780;25.948;2023-03-22T11:05:26;100820.00;;;19.75;64.01
45285;BME280;31026;43.780;25.948;2023-03-22T11:07:57;100819.03;;;19.76;63.89
45285;BME280;31026;43.780;25.948;2023-03-22T11:10:26;100827.81;;;19.78;63.88
45285;BME280;31026;43.780;25.948;2023-03-22T11:15:48;100809.69;;;19.71;64.33
45285;BME280;31026;43.780;25.948;2023-03-22T11:18:16;100807.59;;;19.74;64.30
45285;BME280;31026;43.780;25.948;2023-03-22T11:20:51;100817.50;;;19.74;64.07
45285;BME280;31026;43.780;25.948;2023-03-22T11:23:21;100821.03;;;19.74;63.81
45285;BME280;31026;43.780;25.948;2023-03-22T11:25:49;100817.91;;;19.79;64.20
45285;BME280;31026;43.780;25.948;2023-03-22T11:28:20;100804.63;;;19.77;64.04
45285;BME280;31026;43.780;25.948;2023-03-22T11:31:02;100828.63;;;19.28;65.38
45285;BME280;31026;43.780;25.948;2023-03-22T11:33:31;100814.47;;;18.86;66.19
45285;BME280;31026;43.780;25.948;2023-03-22T11:36:00;100816.53;;;19.03;66.32
45285;BME280;31026;43.780;25.948;2023-03-22T11:38:33;100818.34;;;19.34;65.31
45285;BME280;31026;43.780;25.948;2023-03-22T11:41:02;100812.97;;;19.24;65.52
45285;BME280;31026;43.780;25.948;2023-03-22T11:43:32;100802.66;;;18.88;66.20
45285;BME280;31026;43.780;25.948;2023-03-22T11:46:05;100804.75;;;18.85;66.36
45285;BME280;31026;43.780;25.948;2023-03-22T11:48:35;100796.16;;;19.22;65.61
45285;BME280;31026;43.780;25.948;2023-03-22T11:51:05;100801.31;;;19.44;64.99
45285;BME280;31026;43.780;25.948;2023-03-22T11:53:36;100810.97;;;19.16;65.59
45285;BME280;31026;43.780;25.948;2023-03-22T11:56:05;100809.06;;;18.76;67.15
45285;BME280;31026;43.780;25.948;2023-03-22T12:01:22;100794.63;;;19.29;65.31
45285;BME280;31026;43.780;25.948;2023-03-22T12:03:56;100803.22;;;19.23;65.75
45285;BME280;31026;43.780;25.948;2023-03-22T12:06:25;100788.09;;;18.81;66.81
45285;BME280;31026;43.780;25.948;2023-03-22T12:08:55;100781.16;;;18.79;66.90
45285;BME280;31026;43.780;25.948;2023-03-22T12:11:27;100793.03;;;19.17;65.53
45285;BME280;31026;43.780;25.948;2023-03-22T12:13:56;100807.22;;;19.38;64.75
45285;BME280;31026;43.780;25.948;2023-03-22T12:16:29;100804.25;;;19.01;66.28
45285;BME280;31026;43.780;25.948;2023-03-22T12:19:01;100810.75;;;18.77;67.18
45285;BME280;31026;43.780;25.948;2023-03-22T12:21:30;100801.75;;;19.09;66.05
45285;BME280;31026;43.780;25.948;2023-03-22T12:24:01;100804.97;;;19.53;64.84
45285;BME280;31026;43.780;25.948;2023-03-22T12:26:30;100794.91;;;19.96;63.21
45285;BME280;31026;43.780;25.948;2023-03-22T12:29:00;100802.81;;;20.07;62.88
45285;BME280;31026;43.780;25.948;2023-03-22T12:31:34;100807.75;;;20.02;62.98
45285;BME280;31026;43.780;25.948;2023-03-22T12:34:05;100798.31;;;19.98;63.17
45285;BME280;31026;43.780;25.948;2023-03-22T12:36:36;100796.59;;;19.97;63.37
45285;BME280;31026;43.780;25.948;2023-03-22T12:39:12;100791.78;;;20.00;63.42
45285;BME280;31026;43.780;25.948;2023-03-22T12:41:42;100792.22;;;19.96;63.41
45285;BME280;31026;43.780;25.948;2023-03-22T12:44:15;100791.66;;;20.02;63.20
45285;BME280;31026;43.780;25.948;2023-03-22T12:46:48;100793.19;;;19.95;63.42
45285;BME280;31026;43.780;25.948;2023-03-22T12:49:19;100799.97;;;19.99;63.15
45285;BME280;31026;43.780;25.948;2023-03-22T12:51:52;100778.25;;;20.02;63.19
45285;BME280;31026;43.780;25.948;2023-03-22T12:54:23;100773.00;;;20.10;62.96
45285;BME280;31026;43.780;25.948;2023-03-22T12:56:52;100786.00;;;20.05;62.88
45285;BME280;31026;43.780;25.948;2023-03-22T12:59:22;100792.78;;;20.09;62.81
45285;BME280;31026;43.780;25.948;2023-03-22T13:01:56;100793.63;;;20.10;62.93
45285;BME280;31026;43.780;25.948;2023-03-22T13:04:27;100781.63;;;20.14;62.89
45285;BME280;31026;43.780;25.948;2023-03-22T13:06:56;100826.69;;;20.20;63.06
45285;BME280;31026;43.780;25.948;2023-03-22T13:09:34;100795.88;;;20.14;63.32